sensor_id;sensor_type;location;lat;lon;timestamp;pressure;altitude;pressure_sealevel;temperature;humidity
74921;BME280;63483;47.384;8.860;2023-10-09T00:00:57;95415.44;;;12.53;45.27
74921;BME280;63483;47.384;8.860;2023-10-09T00:03:30;95413.34;;;12.48;45.12
74921;BME280;63483;47.384;8.860;2023-10-09T00:05:57;95404.44;;;12.49;45.08
74921;BME280;63483;47.384;8.860;2023-10-09T00:08:22;95411.50;;;12.49;44.86
74921;BME280;63483;47.384;8.860;2023-10-09T00:10:52;95413.97;;;12.51;44.96
74921;BME280;63483;47.384;8.860;2023-10-09T00:13:24;95417.41;;;12.51;45.06
74921;BME280;63483;47.384;8.860;2023-10-09T00:15:58;95402.81;;;12.48;45.18
74921;BME280;63483;47.384;8.860;2023-10-09T00:18:34;95406.78;;;12.44;45.15
74921;BME280;63483;47.384;8.860;2023-10-09T00:21:00;95417.91;;;12.46;45.17
74921;BME280;63483;47.384;8.860;2023-10-09T00:23:27;95412.03;;;12.44;45.16
74921;BME280;63483;47.384;8.860;2023-10-09T00:25:53;95408.78;;;12.42;45.27
74921;BME280;63483;47.384;8.860;2023-10-09T00:28:37;95413.06;;;12.35;45.52
74921;BME280;63483;47.384;8.860;2023-10-09T00:31:06;95415.53;;;12.37;45.37
74921;BME280;63483;47.384;8.860;2023-10-09T00:33:33;95406.53;;;12.31;45.33
74921;BME280;63483;47.384;8.860;2023-10-09T00:36:05;95401.28;;;12.31;45.36
74921;BME280;63483;47.384;8.860;2023-10-09T00:38:40;95400.78;;;12.27;45.56
74921;BME280;63483;47.384;8.860;2023-10-09T00:41:09;95401.63;;;12.28;45.47
74921;BME280;63483;47.384;8.860;2023-10-09T00:43:36;95399.00;;;12.28;45.47
74921;BME280;63483;47.384;8.860;2023-10-09T00:46:04;95400.47;;;12.30;45.40
74921;BME280;63483;47.384;8.860;2023-10-09T00:48:41;95401.97;;;12.25;45.69
74921;BME280;63483;47.384;8.860;2023-10-09T00:51:08;95399.34;;;12.17;45.79
74921;BME280;63483;47.384;8.860;2023-10-09T00:53:51;95401.00;;;12.18;45.66
74921;BME280;63483;47.384;8.860;2023-10-09T00:56:23;95386.91;;;12.19;45.85
74921;BME280;63483;47.384;8.860;2023-10-09T00:58:55;95398.22;;;12.19;45.80
74921;BME280;63483;47.384;8.860;2023-10-09T01:01:22;95380.81;;;12.18;45.36
74921;BME280;63483;47.384;8.860;2023-10-09T01:03:59;95392.94;;;12.19;45.34
74921;BME280;63483;47.384;8.860;2023-10-09T01:06:24;95393.13;;;12.18;45.11
74921;BME280;63483;47.384;8.860;2023-10-09T01:08:53;95390.50;;;12.18;45.38
74921;BME280;63483;47.384;8.860;2023-10-09T01:11:22;95387.22;;;12.16;45.37
74921;BME280;63483;47.384;8.860;2023-10-09T01:13:55;95385.25;;;12.18;45.69
74921;BME280;63483;47.384;8.860;2023-10-09T01:16:36;95383.25;;;12.20;45.40
74921;BME280;63483;47.384;8.860;2023-10-09T01:19:02;95373.59;;;12.20;45.44
74921;BME280;63483;47.384;8.860;2023-10-09T01:21:38;95383.25;;;12.20;45.61
74921;BME280;63483;47.384;8.860;2023-10-09T01:24:05;95378.84;;;12.20;45.30
74921;BME280;63483;47.384;8.860;2023-10-09T01:26:41;95376.38;;;12.19;45.54
74921;BME280;63483;47.384;8.860;2023-10-09T01:29:19;95374.06;;;12.16;45.60
74921;BME280;63483;47.384;8.860;2023-10-09T01:31:49;95373.78;;;12.10;45.73
74921;BME280;63483;47.384;8.860;2023-10-09T01:34:28;95373.78;;;12.10;45.60
74921;BME280;63483;47.384;8.860;2023-10-09T01:37:12;95369.69;;;12.08;45.60
74921;BME280;63483;47.384;8.860;2023-10-09T01:39:57;95375.78;;;12.08;45.54
74921;BME280;63483;47.384;8.860;2023-10-09T01:42:45;95375.78;;;12.08;45.84
74921;BME280;63483;47.384;8.860;2023-10-09T01:45:14;95374.13;;;12.07;45.86
74921;BME280;63483;47.384;8.860;2023-10-09T01:47:45;95369.06;;;12.06;45.52
74921;BME280;63483;47.384;8.860;2023-10-09T01:50:16;95368.25;;;12.05;45.50
74921;BME280;63483;47.384;8.860;2023-10-09T01:52:47;95372.84;;;12.03;45.52
74921;BME280;63483;47.384;8.860;2023-10-09T01:55:13;95376.13;;;12.05;45.61
74921;BME280;63483;47.384;8.860;2023-10-09T01:57:54;95376.28;;;12.04;45.70
74921;BME280;63483;47.384;8.860;2023-10-09T02:00:19;95373.19;;;12.00;45.67
74921;BME280;63483;47.384;8.860;2023-10-09T02:02:49;95369.06;;;11.98;45.57
74921;BME280;63483;47.384;8.860;2023-10-09T02:05:15;95363.03;;;11.97;45.68
74921;BME280;63483;47.384;8.860;2023-10-09T02:07:42;95372.88;;;11.95;45.89
74921;BME280;63483;47.384;8.860;2023-10-09T02:10:17;95371.25;;;11.94;45.60
74921;BME280;63483;47.384;8.860;2023-10-09T02:12:59;95372.22;;;11.93;46.00
74921;BME280;63483;47.384;8.860;2023-10-09T02:15:29;95365.50;;;11.90;45.97
74921;BME280;63483;47.384;8.860;2023-10-09T02:18:14;95364.22;;;11.86;45.97
74921;BME280;63483;47.384;8.860;2023-10-09T02:21:08;95363.69;;;11.83;45.94
74921;BME280;63483;47.384;8.860;2023-10-09T02:23:35;95364.72;;;11.82;46.09
74921;BME280;63483;47.384;8.860;2023-10-09T02:26:11;95374.72;;;11.78;45.87
74921;BME280;63483;47.384;8.860;2023-10-09T02:28:45;95369.28;;;11.79;46.20
74921;BME280;63483;47.384;8.860;2023-10-09T02:31:18;95368.47;;;11.79;46.05
74921;BME280;63483;47.384;8.860;2023-10-09T02:33:47;95371.91;;;11.79;46.08
74921;BME280;63483;47.384;8.860;2023-10-09T02:36:15;95362.22;;;11.80;46.42
74921;BME280;63483;47.384;8.860;2023-10-09T02:38:41;95363.06;;;11.81;46.13
74921;BME280;63483;47.384;8.860;2023-10-09T02:41:07;95370.59;;;11.75;46.17
74921;BME280;63483;47.384;8.860;2023-10-09T02:43:39;95369.00;;;11.74;46.28
74921;BME280;63483;47.384;8.860;2023-10-09T02:46:19;95361.28;;;11.73;45.86
74921;BME280;63483;47.384;8.860;2023-10-09T02:48:58;95366.88;;;11.70;46.17
74921;BME280;63483;47.384;8.860;2023-10-09T02:51:24;95361.13;;;11.66;45.99
74921;BME280;63483;47.384;8.860;2023-10-09T02:56:20;95356.06;;;11.65;46.27
74921;BME280;63483;47.384;8.860;2023-10-09T02:58:52;95349.84;;;11.66;46.31
74921;BME280;63483;47.384;8.860;2023-10-09T03:01:17;95354.25;;;11.65;46.32
74921;BME280;63483;47.384;8.860;2023-10-09T03:03:43;95356.56;;;11.60;46.15
74921;BME280;63483;47.384;8.860;2023-10-09T03:06:15;95351.66;;;11.57;46.62
74921;BME280;63483;47.384;8.860;2023-10-09T03:08:53;95353.94;;;11.52;46.82
74921;BME280;63483;47.384;8.860;2023-10-09T03:11:20;95355.59;;;11.53;46.45
74921;BME280;63483;47.384;8.860;2023-10-09T03:13:45;95355.59;;;11.53;46.80
74921;BME280;63483;47.384;8.860;2023-10-09T03:16:12;95355.59;;;11.53;46.42
74921;BME280;63483;47.384;8.860;2023-10-09T03:18:49;95349.53;;;11.52;46.58
74921;BME280;63483;47.384;8.860;2023-10-09T03:21:15;95355.59;;;11.53;46.36
74921;BME280;63483;47.384;8.860;2023-10-09T03:23:43;95346.09;;;11.52;46.36
74921;BME280;63483;47.384;8.860;2023-10-09T03:26:09;95351.50;;;11.50;46.38
74921;BME280;63483;47.384;8.860;2023-10-09T03:28:35;95347.09;;;11.51;46.67
74921;BME280;63483;47.384;8.860;2023-10-09T03:31:01;95353.31;;;11.50;46.66
74921;BME280;63483;47.384;8.860;2023-10-09T03:33:31;95343.81;;;11.49;46.75
74921;BME280;63483;47.384;8.860;2023-10-09T03:35:59;95347.78;;;11.45;46.65
74921;BME280;63483;47.384;8.860;2023-10-09T03:38:25;95349.38;;;11.46;46.83
74921;BME280;63483;47.384;8.860;2023-10-09T03:40:54;95342.53;;;11.45;46.52
74921;BME280;63483;47.384;8.860;2023-10-09T03:43:19;95348.06;;;11.41;46.47
74921;BME280;63483;47.384;8.860;2023-10-09T03:45:46;95345.16;;;11.36;46.50
74921;BME280;63483;47.384;8.860;2023-10-09T03:48:18;95344.50;;;11.34;46.37
74921;BME280;63483;47.384;8.860;2023-10-09T03:50:58;95343.84;;;11.32;46.44
74921;BME280;63483;47.384;8.860;2023-10-09T03:53:38;95343.19;;;11.30;46.77
74921;BME280;63483;47.384;8.860;2023-10-09T03:56:08;95342.19;;;11.31;47.18
74921;BME280;63483;47.384;8.860;2023-10-09T03:58:44;95345.81;;;11.30;46.83
74921;BME280;63483;47.384;8.860;2023-10-09T04:01:15;95351.06;;;11.30;46.99
74921;BME280;63483;47.384;8.860;2023-10-09T04:04:04;95342.19;;;11.31;46.98
74921;BME280;63483;47.384;8.860;2023-10-09T04:06:31;95343.38;;;11.29;46.83
74921;BME280;63483;47.384;8.860;2023-10-09T04:09:01;95341.72;;;11.28;47.15
74921;BME280;63483;47.384;8.860;2023-10-09T04:11:46;95343.53;;;11.27;47.13
74921;BME280;63483;47.384;8.860;2023-10-09T04:14:13;95343.72;;;11.25;47.39
74921;BME280;63483;47.384;8.860;2023-10-09T04:17:02;95349.75;;;11.26;46.71
74921;BME280;63483;47.384;8.860;2023-10-09T04:19:50;95345.50;;;11.25;47.08
74921;BME280;63483;47.384;8.860;2023-10-09T04:22:35;95344.22;;;11.21;47.24
74921;BME280;63483;47.384;8.860;2023-10-09T04:25:05;95343.53;;;11.19;47.34
74921;BME280;63483;47.384;8.860;2023-10-09T04:27:43;95346.34;;;11.17;47.49
74921;BME280;63483;47.384;8.860;2023-10-09T04:30:10;95343.53;;;11.19;47.30
74921;BME280;63483;47.384;8.860;2023-10-09T04:32:43;95336.66;;;11.18;47.17
74921;BME280;63483;47.384;8.860;2023-10-09T04:35:12;95342.22;;;11.15;47.56
74921;BME280;63483;47.384;8.860;2023-10-09T04:37:49;95336.00;;;11.07;47.65
74921;BME280;63483;47.384;8.860;2023-10-09T04:40:25;95335.72;;;11.11;47.72
74921;BME280;63483;47.384;8.860;2023-10-09T04:43:09;95330.75;;;11.07;47.48
74921;BME280;63483;47.384;8.860;2023-10-09T04:45:45;95321.13;;;11.08;47.70
74921;BME280;63483;47.384;8.860;2023-10-09T04:48:29;95334.22;;;11.08;47.54
74921;BME280;63483;47.384;8.860;2023-10-09T04:51:01;95326.88;;;11.03;47.52
74921;BME280;63483;47.384;8.860;2023-10-09T04:53:58;95336.34;;;11.04;47.57
74921;BME280;63483;47.384;8.860;2023-10-09T04:56:42;95330.28;;;11.04;47.57
74921;BME280;63483;47.384;8.860;2023-10-09T04:59:33;95330.63;;;11.01;47.63
74921;BME280;63483;47.384;8.860;2023-10-09T05:02:11;95334.72;;;11.03;47.52
74921;BME280;63483;47.384;8.860;2023-10-09T05:04:44;95336.69;;;11.10;47.25
74921;BME280;63483;47.384;8.860;2023-10-09T05:07:12;95330.47;;;11.11;47.35
74921;BME280;63483;47.384;8.860;2023-10-09T05:09:57;95334.69;;;11.12;47.16
74921;BME280;63483;47.384;8.860;2023-10-09T05:12:35;95339.59;;;11.15;47.13
74921;BME280;63483;47.384;8.860;2023-10-09T05:15:06;95338.63;;;11.16;46.95
74921;BME280;63483;47.384;8.860;2023-10-09T05:17:35;95340.91;;;11.19;46.87
74921;BME280;63483;47.384;8.860;2023-10-09T05:20:02;95344.22;;;11.21;47.03
74921;BME280;63483;47.384;8.860;2023-10-09T05:22:46;95345.19;;;11.20;47.15
74921;BME280;63483;47.384;8.860;2023-10-09T05:25:23;95343.53;;;11.19;47.07
74921;BME280;63483;47.384;8.860;2023-10-09T05:28:08;95338.00;;;11.14;47.11
74921;BME280;63483;47.384;8.860;2023-10-09T05:30:57;95342.41;;;11.13;47.15
74921;BME280;63483;47.384;8.860;2023-10-09T05:33:55;95350.09;;;11.15;47.30
74921;BME280;63483;47.384;8.860;2023-10-09T05:36:26;95351.44;;;11.11;47.17
74921;BME280;63483;47.384;8.860;2023-10-09T05:38:51;95348.66;;;11.12;47.31
74921;BME280;63483;47.384;8.860;2023-10-09T05:41:35;95345.53;;;11.00;47.49
74921;BME280;63483;47.384;8.860;2023-10-09T05:44:13;95337.34;;;10.95;47.56
74921;BME280;63483;47.384;8.860;2023-10-09T05:46:57;95344.56;;;10.93;47.81
74921;BME280;63483;47.384;8.860;2023-10-09T05:49:41;95339.97;;;11.03;47.66
74921;BME280;63483;47.384;8.860;2023-10-09T05:52:25;95346.50;;;11.07;47.72
74921;BME280;63483;47.384;8.860;2023-10-09T05:55:13;95344.53;;;11.10;47.63
74921;BME280;63483;47.384;8.860;2023-10-09T05:57:52;95351.44;;;11.11;47.41
74921;BME280;63483;47.384;8.860;2023-10-09T06:00:20;95354.69;;;11.13;47.19
74921;BME280;63483;47.384;8.860;2023-10-09T06:03:04;95344.22;;;10.96;47.57
74921;BME280;63483;47.384;8.860;2023-10-09T06:05:56;95356.38;;;10.97;47.81
74921;BME280;63483;47.384;8.860;2023-10-09T06:08:25;95355.69;;;10.95;47.42
74921;BME280;63483;47.384;8.860;2023-10-09T06:11:10;95360.28;;;10.93;47.66
74921;BME280;63483;47.384;8.860;2023-10-09T06:13:55;95352.88;;;10.88;47.73
74921;BME280;63483;47.384;8.860;2023-10-09T06:16:35;95356.38;;;10.97;47.74
74921;BME280;63483;47.384;8.860;2023-10-09T06:19:04;95361.91;;;10.94;47.73
74921;BME280;63483;47.384;8.860;2023-10-09T06:21:45;95357.16;;;10.98;47.45
74921;BME280;63483;47.384;8.860;2023-10-09T06:24:17;95364.19;;;11.05;47.32
74921;BME280;63483;47.384;8.860;2023-10-09T06:26:44;95359.94;;;11.04;47.69
74921;BME280;63483;47.384;8.860;2023-10-09T06:29:36;95364.72;;;11.09;47.50
74921;BME280;63483;47.384;8.860;2023-10-09T06:32:08;95370.09;;;11.07;47.66
74921;BME280;63483;47.384;8.860;2023-10-09T06:34:57;95372.72;;;11.07;47.83
74921;BME280;63483;47.384;8.860;2023-10-09T06:37:43;95364.03;;;11.07;47.70
74921;BME280;63483;47.384;8.860;2023-10-09T06:40:32;95369.13;;;11.08;47.90
74921;BME280;63483;47.384;8.860;2023-10-09T06:43:17;95368.63;;;11.13;47.82
74921;BME280;63483;47.384;8.860;2023-10-09T06:45:45;95370.72;;;11.18;48.00
74921;BME280;63483;47.384;8.860;2023-10-09T06:48:13;95359.94;;;11.13;48.04
74921;BME280;63483;47.384;8.860;2023-10-09T06:51:02;95365.81;;;11.15;48.17
74921;BME280;63483;47.384;8.860;2023-10-09T06:53:46;95372.72;;;11.16;48.17
74921;BME280;63483;47.384;8.860;2023-10-09T06:56:28;95379.09;;;11.13;48.21
74921;BME280;63483;47.384;8.860;2023-10-09T06:58:54;95389.25;;;11.16;48.37
74921;BME280;63483;47.384;8.860;2023-10-09T07:01:38;95388.28;;;10.93;48.95
74921;BME280;63483;47.384;8.860;2023-10-09T07:04:04;95390.59;;;11.12;48.56
74921;BME280;63483;47.384;8.860;2023-10-09T07:06:47;95392.72;;;11.17;48.54
74921;BME280;63483;47.384;8.860;2023-10-09T07:09:13;95397.28;;;11.23;48.75
74921;BME280;63483;47.384;8.860;2023-10-09T07:11:40;95390.56;;;11.29;48.35
74921;BME280;63483;47.384;8.860;2023-10-09T07:14:09;95393.50;;;11.34;48.42
74921;BME280;63483;47.384;8.860;2023-10-09T07:16:57;95395.31;;;11.33;48.59
74921;BME280;63483;47.384;8.860;2023-10-09T07:19:30;95395.63;;;11.38;48.67
74921;BME280;63483;47.384;8.860;2023-10-09T07:22:04;95396.59;;;11.46;48.35
74921;BME280;63483;47.384;8.860;2023-10-09T07:24:41;95393.63;;;11.49;48.54
74921;BME280;63483;47.384;8.860;2023-10-09T07:27:09;95390.69;;;11.52;48.30
74921;BME280;63483;47.384;8.860;2023-10-09T07:29:36;95402.81;;;11.53;48.56
74921;BME280;63483;47.384;8.860;2023-10-09T07:32:16;95400.53;;;11.58;48.64
74921;BME280;63483;47.384;8.860;2023-10-09T07:34:49;95403.78;;;11.60;48.77
74921;BME280;63483;47.384;8.860;2023-10-09T07:37:27;95395.25;;;11.66;48.65
74921;BME280;63483;47.384;8.860;2023-10-09T07:39:58;95399.81;;;11.72;48.67
74921;BME280;63483;47.384;8.860;2023-10-09T07:42:25;95400.94;;;11.78;48.66
74921;BME280;63483;47.384;8.860;2023-10-09T07:45:11;95402.44;;;11.81;48.92
74921;BME280;63483;47.384;8.860;2023-10-09T07:47:56;95405.72;;;11.91;48.66
74921;BME280;63483;47.384;8.860;2023-10-09T07:50:25;95408.97;;;11.93;48.48
74921;BME280;63483;47.384;8.860;2023-10-09T07:52:56;95408.25;;;12.07;48.48
74921;BME280;63483;47.384;8.860;2023-10-09T07:55:40;95411.84;;;12.15;48.39
74921;BME280;63483;47.384;8.860;2023-10-09T07:58:11;95410.47;;;12.27;48.53
74921;BME280;63483;47.384;8.860;2023-10-09T08:00:37;95413.41;;;12.32;48.87
74921;BME280;63483;47.384;8.860;2023-10-09T08:03:22;95409.94;;;12.40;48.61
74921;BME280;63483;47.384;8.860;2023-10-09T08:05:51;95402.69;;;12.42;49.70
74921;BME280;63483;47.384;8.860;2023-10-09T08:08:19;95414.44;;;12.54;49.31
74921;BME280;63483;47.384;8.860;2023-10-09T08:10:53;95414.88;;;12.66;49.33
74921;BME280;63483;47.384;8.860;2023-10-09T08:13:37;95417.44;;;12.74;48.62
74921;BME280;63483;47.384;8.860;2023-10-09T08:16:15;95413.97;;;12.82;48.88
74921;BME280;63483;47.384;8.860;2023-10-09T08:18:47;95423.44;;;12.91;49.05
74921;BME280;63483;47.384;8.860;2023-10-09T08:21:17;95421.09;;;12.96;48.53
74921;BME280;63483;47.384;8.860;2023-10-09T08:23:42;95429.28;;;13.02;48.95
74921;BME280;63483;47.384;8.860;2023-10-09T08:26:14;95425.31;;;12.82;50.82
74921;BME280;63483;47.384;8.860;2023-10-09T08:28:40;95436.28;;;13.09;49.70
74921;BME280;63483;47.384;8.860;2023-10-09T08:31:17;95435.94;;;13.12;50.27
74921;BME280;63483;47.384;8.860;2023-10-09T08:34:10;95439.78;;;13.25;50.07
74921;BME280;63483;47.384;8.860;2023-10-09T08:36:48;95436.78;;;13.28;50.91
74921;BME280;63483;47.384;8.860;2023-10-09T08:39:23;95437.81;;;13.04;52.44
74921;BME280;63483;47.384;8.860;2023-10-09T08:41:55;95437.66;;;13.43;51.59
74921;BME280;63483;47.384;8.860;2023-10-09T08:44:24;95439.84;;;13.54;51.40
74921;BME280;63483;47.384;8.860;2023-10-09T08:46:54;95452.94;;;13.63;51.28
74921;BME280;63483;47.384;8.860;2023-10-09T08:49:19;95453.69;;;13.72;51.43
74921;BME280;63483;47.384;8.860;2023-10-09T08:51:46;95447.91;;;13.76;51.89
74921;BME280;63483;47.384;8.860;2023-10-09T08:54:13;95445.53;;;13.81;51.48
74921;BME280;63483;47.384;8.860;2023-10-09T08:56:40;95458.97;;;13.86;51.06
74921;BME280;63483;47.384;8.860;2023-10-09T08:59:15;95456.63;;;13.92;51.33
74921;BME280;63483;47.384;8.860;2023-10-09T09:01:44;95455.91;;;13.98;51.17
74921;BME280;63483;47.384;8.860;2023-10-09T09:04:09;95451.53;;;14.05;50.79
74921;BME280;63483;47.384;8.860;2023-10-09T09:06:37;95458.97;;;14.16;50.30
74921;BME280;63483;47.384;8.860;2023-10-09T09:09:12;95465.22;;;14.30;49.93
74921;BME280;63483;47.384;8.860;2023-10-09T09:11:41;95457.06;;;14.40;50.19
74921;BME280;63483;47.384;8.860;2023-10-09T09:14:13;95447.69;;;14.52;49.06
74921;BME280;63483;47.384;8.860;2023-10-09T09:16:44;95449.31;;;14.68;49.10
74921;BME280;63483;47.384;8.860;2023-10-09T09:19:14;95451.91;;;14.83;48.11
74921;BME280;63483;47.384;8.860;2023-10-09T09:21:56;95443.75;;;15.00;46.42
74921;BME280;63483;47.384;8.860;2023-10-09T09:24:27;95445.50;;;15.14;45.68
74921;BME280;63483;47.384;8.860;2023-10-09T09:27:03;95442.00;;;15.28;45.08
74921;BME280;63483;47.384;8.860;2023-10-09T09:29:41;95453.06;;;15.39;44.05
74921;BME280;63483;47.384;8.860;2023-10-09T09:32:09;95439.13;;;15.52;42.72
74921;BME280;63483;47.384;8.860;2023-10-09T09:34:51;95431.28;;;15.58;42.59
74921;BME280;63483;47.384;8.860;2023-10-09T09:37:23;95442.94;;;15.71;41.84
74921;BME280;63483;47.384;8.860;2023-10-09T09:39:55;95433.50;;;15.83;42.31
74921;BME280;63483;47.384;8.860;2023-10-09T09:42:22;95431.53;;;15.98;40.72
74921;BME280;63483;47.384;8.860;2023-10-09T09:44:52;95440.72;;;16.03;40.88
74921;BME280;63483;47.384;8.860;2023-10-09T09:47:18;95438.97;;;16.10;39.98
74921;BME280;63483;47.384;8.860;2023-10-09T09:49:54;95440.28;;;16.27;40.06
74921;BME280;63483;47.384;8.860;2023-10-09T09:52:26;95438.28;;;16.43;40.01
74921;BME280;63483;47.384;8.860;2023-10-09T09:54:52;95432.66;;;16.53;39.66
74921;BME280;63483;47.384;8.860;2023-10-09T09:57:20;95431.00;;;16.58;39.66
74921;BME280;63483;47.384;8.860;2023-10-09T09:59:51;95434.34;;;16.74;36.66
74921;BME280;63483;47.384;8.860;2023-10-09T10:02:29;95429.09;;;16.87;37.50
74921;BME280;63483;47.384;8.860;2023-10-09T10:05:02;95426.66;;;16.92;37.49
74921;BME280;63483;47.384;8.860;2023-10-09T10:07:31;95418.75;;;17.12;37.14
74921;BME280;63483;47.384;8.860;2023-10-09T10:10:02;95421.41;;;17.26;38.12
74921;BME280;63483;47.384;8.860;2023-10-09T10:15:58;95418.56;;;17.54;35.41
74921;BME280;63483;47.384;8.860;2023-10-09T10:18:24;95427.50;;;17.40;35.90
74921;BME280;63483;47.384;8.860;2023-10-09T10:21:12;95423.06;;;17.53;35.66
74921;BME280;63483;47.384;8.860;2023-10-09T10:23:54;95420.59;;;17.52;36.43
74921;BME280;63483;47.384;8.860;2023-10-09T10:26:31;95412.47;;;17.60;36.23
74921;BME280;63483;47.384;8.860;2023-10-09T10:29:18;95419.00;;;17.64;36.40
74921;BME280;63483;47.384;8.860;2023-10-09T10:31:59;95405.56;;;17.59;35.47
74921;BME280;63483;47.384;8.860;2023-10-09T10:37:43;95408.19;;;17.72;37.24
74921;BME280;63483;47.384;8.860;2023-10-09T10:40:28;95405.09;;;17.82;35.94
74921;BME280;63483;47.384;8.860;2023-10-09T10:43:18;95403.47;;;17.88;35.71
74921;BME280;63483;47.384;8.860;2023-10-09T10:46:13;95399.81;;;17.89;36.11
74921;BME280;63483;47.384;8.860;2023-10-09T10:48:41;95404.25;;;17.95;36.31
74921;BME280;63483;47.384;8.860;2023-10-09T10:51:12;95396.91;;;17.97;35.44
74921;BME280;63483;47.384;8.860;2023-10-09T10:53:52;95400.56;;;18.10;35.83
74921;BME280;63483;47.384;8.860;2023-10-09T10:56:38;95402.16;;;18.17;35.67
74921;BME280;63483;47.384;8.860;2023-10-09T10:59:04;95395.63;;;18.20;36.79
74921;BME280;63483;47.384;8.860;2023-10-09T11:01:33;95395.22;;;18.23;35.70
74921;BME280;63483;47.384;8.860;2023-10-09T11:04:22;95393.16;;;18.25;35.67
74921;BME280;63483;47.384;8.860;2023-10-09T11:07:03;95397.03;;;18.29;36.32
74921;BME280;63483;47.384;8.860;2023-10-09T11:09:47;95397.63;;;18.38;36.94
74921;BME280;63483;47.384;8.860;2023-10-09T11:12:28;95396.13;;;18.49;34.86
74921;BME280;63483;47.384;8.860;2023-10-09T11:15:13;95391.84;;;18.48;34.79
74921;BME280;63483;47.384;8.860;2023-10-09T11:20:43;95384.47;;;18.56;35.27
74921;BME280;63483;47.384;8.860;2023-10-09T11:23:22;95377.06;;;18.65;35.85
74921;BME280;63483;47.384;8.860;2023-10-09T11:26:02;95385.22;;;18.70;36.26
74921;BME280;63483;47.384;8.860;2023-10-09T11:29:10;95370.88;;;18.78;35.01
74921;BME280;63483;47.384;8.860;2023-10-09T11:32:07;95367.81;;;18.74;34.18
74921;BME280;63483;47.384;8.860;2023-10-09T11:35:11;95376.75;;;18.87;34.49
74921;BME280;63483;47.384;8.860;2023-10-09T11:37:36;95366.13;;;18.87;35.06
74921;BME280;63483;47.384;8.860;2023-10-09T11:40:26;95376.91;;;18.92;34.13
74921;BME280;63483;47.384;8.860;2023-10-09T11:42:53;95382.19;;;18.99;35.02
74921;BME280;63483;47.384;8.860;2023-10-09T11:45:27;95379.34;;;18.93;34.44
74921;BME280;63483;47.384;8.860;2023-10-09T11:47:57;95384.22;;;18.97;34.51
74921;BME280;63483;47.384;8.860;2023-10-09T11:53:18;95379.69;;;19.10;35.30
74921;BME280;63483;47.384;8.860;2023-10-09T11:55:47;95375.44;;;19.03;35.16
74921;BME280;63483;47.384;8.860;2023-10-09T11:58:16;95362.50;;;19.13;34.73
74921;BME280;63483;47.384;8.860;2023-10-09T12:00:53;95364.88;;;19.21;34.50
74921;BME280;63483;47.384;8.860;2023-10-09T12:03:26;95366.00;;;19.32;34.43
74921;BME280;63483;47.384;8.860;2023-10-09T12:05:59;95353.72;;;19.38;34.53
74921;BME280;63483;47.384;8.860;2023-10-09T12:08:37;95367.19;;;19.36;33.87
74921;BME280;63483;47.384;8.860;2023-10-09T12:11:05;95349.66;;;19.35;33.31
74921;BME280;63483;47.384;8.860;2023-10-09T12:13:33;95352.31;;;19.35;34.28
74921;BME280;63483;47.384;8.860;2023-10-09T12:15:58;95354.13;;;19.35;34.52
74921;BME280;63483;47.384;8.860;2023-10-09T12:18:24;95347.81;;;19.36;35.76
74921;BME280;63483;47.384;8.860;2023-10-09T12:20:50;95356.97;;;19.40;35.24
74921;BME280;63483;47.384;8.860;2023-10-09T12:23:27;95353.03;;;19.42;34.54
74921;BME280;63483;47.384;8.860;2023-10-09T12:25:53;95349.59;;;19.42;33.95
74921;BME280;63483;47.384;8.860;2023-10-09T12:28:22;95349.59;;;19.42;33.57
74921;BME280;63483;47.384;8.860;2023-10-09T12:30:49;95341.41;;;19.43;33.86
74921;BME280;63483;47.384;8.860;2023-10-09T12:33:18;95333.22;;;19.45;33.81
74921;BME280;63483;47.384;8.860;2023-10-09T12:35:54;95336.88;;;19.44;35.54
74921;BME280;63483;47.384;8.860;2023-10-09T12:38:27;95347.50;;;19.44;34.59
74921;BME280;63483;47.384;8.860;2023-10-09T12:41:06;95333.66;;;19.42;33.55
74921;BME280;63483;47.384;8.860;2023-10-09T12:43:50;95336.38;;;19.35;35.29
74921;BME280;63483;47.384;8.860;2023-10-09T12:46:20;95334.75;;;19.34;35.22
74921;BME280;63483;47.384;8.860;2023-10-09T12:48:48;95326.78;;;19.34;35.79
74921;BME280;63483;47.384;8.860;2023-10-09T12:51:15;95330.47;;;19.33;35.50
74921;BME280;63483;47.384;8.860;2023-10-09T12:53:42;95328.81;;;19.32;35.72
74921;BME280;63483;47.384;8.860;2023-10-09T12:56:08;95332.53;;;19.31;34.91
74921;BME280;63483;47.384;8.860;2023-10-09T12:58:34;95335.78;;;19.33;35.40
74921;BME280;63483;47.384;8.860;2023-10-09T13:01:02;95328.41;;;19.35;35.25
74921;BME280;63483;47.384;8.860;2023-10-09T13:03:38;95322.06;;;19.36;37.21
74921;BME280;63483;47.384;8.860;2023-10-09T13:06:04;95323.69;;;19.37;37.88
74921;BME280;63483;47.384;8.860;2023-10-09T13:08:35;95325.75;;;19.35;38.62
74921;BME280;63483;47.384;8.860;2023-10-09T13:11:06;95315.72;;;19.37;37.24
74921;BME280;63483;47.384;8.860;2023-10-09T13:13:38;95314.09;;;19.36;37.13
74921;BME280;63483;47.384;8.860;2023-10-09T13:16:12;95317.78;;;19.35;36.57
74921;BME280;63483;47.384;8.860;2023-10-09T13:18:40;95310.84;;;19.34;35.18
74921;BME280;63483;47.384;8.860;2023-10-09T13:21:05;95307.56;;;19.32;35.27
74921;BME280;63483;47.384;8.860;2023-10-09T13:23:31;95310.84;;;19.34;36.56
74921;BME280;63483;47.384;8.860;2023-10-09T13:26:12;95306.78;;;19.32;36.74
74921;BME280;63483;47.384;8.860;2023-10-09T13:28:45;95301.47;;;19.32;38.63
74921;BME280;63483;47.384;8.860;2023-10-09T13:31:12;95305.38;;;19.29;35.74
74921;BME280;63483;47.384;8.860;2023-10-09T13:33:40;95300.66;;;19.31;37.53
74921;BME280;63483;47.384;8.860;2023-10-09T13:36:05;95294.38;;;19.25;37.87
74921;BME280;63483;47.384;8.860;2023-10-09T13:38:41;95295.03;;;19.21;38.24
74921;BME280;63483;47.384;8.860;2023-10-09T13:41:08;95290.97;;;19.18;38.95
74921;BME280;63483;47.384;8.860;2023-10-09T13:43:39;95289.78;;;19.14;40.31
74921;BME280;63483;47.384;8.860;2023-10-09T13:46:07;95297.97;;;19.12;40.83
74921;BME280;63483;47.384;8.860;2023-10-09T13:48:33;95295.16;;;19.07;40.79
74921;BME280;63483;47.384;8.860;2023-10-09T13:51:04;95288.22;;;19.06;40.57